createdAt,value
2018-04-17T00:00:33.804Z,14.19
2018-04-17T00:01:33.792Z,14.19
2018-04-17T00:02:33.800Z,14.24
2018-04-17T00:03:33.774Z,14.22
2018-04-17T00:04:33.767Z,14.22
2018-04-17T00:05:33.763Z,14.21
2018-04-17T00:06:33.765Z,14.18
2018-04-17T00:07:33.781Z,14.18
2018-04-17T00:08:33.785Z,14.19
2018-04-17T00:09:33.749Z,14.17
2018-04-17T00:10:33.875Z,14.17
2018-04-17T00:11:33.777Z,14.15
2018-04-17T00:12:33.886Z,14.02
2018-04-17T00:13:33.771Z,14.07
2018-04-17T00:14:33.755Z,14.07
2018-04-17T00:15:33.817Z,14.05
2018-04-17T00:16:33.751Z,14.07
2018-04-17T00:17:33.751Z,14.05
2018-04-17T00:18:33.869Z,14.05
2018-04-17T00:19:33.745Z,14.07
2018-04-17T00:20:33.728Z,14.05
2018-04-17T00:21:33.810Z,14.07
2018-04-17T00:22:33.744Z,14.01
2018-04-17T00:23:33.796Z,13.98
2018-04-17T00:24:33.787Z,13.98
2018-04-17T00:25:33.741Z,14
2018-04-17T00:26:33.752Z,14
2018-04-17T00:27:33.753Z,13.98
2018-04-17T00:28:33.765Z,13.96
2018-04-17T00:29:33.757Z,13.93
2018-04-17T00:30:33.770Z,13.94
2018-04-17T00:31:33.722Z,13.97
2018-04-17T00:32:33.721Z,13.94
2018-04-17T00:33:33.719Z,13.96
2018-04-17T00:34:33.764Z,13.93
2018-04-17T00:35:33.725Z,13.9
2018-04-17T00:36:33.710Z,13.87
2018-04-17T00:37:33.714Z,13.91
2018-04-17T00:38:33.715Z,13.9
2018-04-17T00:39:33.744Z,13.91
2018-04-17T00:40:33.778Z,13.89
2018-04-17T00:41:33.720Z,13.89
2018-04-17T00:42:33.712Z,13.87
2018-04-17T00:43:33.705Z,13.83
2018-04-17T00:44:33.741Z,13.83
2018-04-17T00:45:33.793Z,13.79
2018-04-17T00:46:33.705Z,13.82
2018-04-17T00:47:33.717Z,13.73
2018-04-17T00:48:33.721Z,13.59
2018-04-17T00:49:33.723Z,13.6
2018-04-17T00:50:33.693Z,13.6
2018-04-17T00:51:33.723Z,13.63
2018-04-17T00:52:33.706Z,13.63
2018-04-17T00:53:33.726Z,13.64
2018-04-17T00:54:33.717Z,13.62
2018-04-17T00:55:33.717Z,13.63
2018-04-17T00:56:33.692Z,13.63
2018-04-17T00:57:33.751Z,13.63
2018-04-17T00:58:33.699Z,13.62
2018-04-17T00:59:33.704Z,13.64
2018-04-17T01:00:33.684Z,13.6
2018-04-17T01:01:33.702Z,13.62
2018-04-17T01:02:33.717Z,13.57
2018-04-17T01:03:33.702Z,13.53
2018-04-17T01:04:33.717Z,13.5
2018-04-17T01:05:33.683Z,13.46
2018-04-17T01:06:33.702Z,13.42
2018-04-17T01:07:33.688Z,13.36
2018-04-17T01:08:33.678Z,13.36
2018-04-17T01:09:33.700Z,13.38
2018-04-17T01:10:33.667Z,13.36
2018-04-17T01:11:33.671Z,13.34
2018-04-17T01:12:33.669Z,13.32
2018-04-17T01:13:33.669Z,13.32
2018-04-17T01:14:33.673Z,13.28
2018-04-17T01:15:33.680Z,13.32
2018-04-17T01:16:33.721Z,13.24
2018-04-17T01:17:33.682Z,13.24
2018-04-17T01:18:33.681Z,13.24
2018-04-17T01:19:33.663Z,13.27
2018-04-17T01:20:33.658Z,13.24
2018-04-17T01:21:33.786Z,13.07
2018-04-17T01:22:33.728Z,13.03
2018-04-17T01:23:33.680Z,13.03
2018-04-17T01:24:33.650Z,13.06
2018-04-17T01:25:33.652Z,13.06
2018-04-17T01:26:33.680Z,13.06
2018-04-17T01:27:33.637Z,13.06
2018-04-17T01:28:33.643Z,12.99
2018-04-17T01:29:33.664Z,12.97
2018-04-17T01:30:33.637Z,13.03
2018-04-17T01:31:33.724Z,13.01
2018-04-17T01:32:33.643Z,13
2018-04-17T01:33:33.667Z,13.01
2018-04-17T01:34:33.634Z,12.99
2018-04-17T01:35:33.632Z,13
2018-04-17T01:36:33.716Z,13.03
2018-04-17T01:37:33.645Z,13.01
2018-04-17T01:38:33.637Z,13
2018-04-17T01:39:33.624Z,12.99
2018-04-17T01:40:33.641Z,12.99
2018-04-17T01:41:33.656Z,12.97
2018-04-17T01:42:33.859Z,12.97
2018-04-17T01:43:33.634Z,12.99
2018-04-17T01:44:33.630Z,12.99
2018-04-17T01:45:33.629Z,12.97
2018-04-17T01:46:33.615Z,13.01
2018-04-17T01:47:33.622Z,13.01
2018-04-17T01:48:33.614Z,13.01
2018-04-17T01:49:33.636Z,13.01
2018-04-17T01:50:33.625Z,13.03
2018-04-17T01:51:33.604Z,12.97
2018-04-17T01:52:33.615Z,12.99
2018-04-17T01:53:33.639Z,13
2018-04-17T01:54:33.626Z,12.96
2018-04-17T01:55:33.739Z,12.93
2018-04-17T01:56:33.598Z,12.91
2018-04-17T01:57:33.623Z,12.88
2018-04-17T01:58:33.603Z,12.83
2018-04-17T01:59:33.598Z,12.83
2018-04-17T02:00:33.653Z,12.8
2018-04-17T02:01:33.592Z,12.76
2018-04-17T02:02:33.610Z,12.73
2018-04-17T02:03:33.586Z,12.69
2018-04-17T02:04:33.593Z,12.69
2018-04-17T02:05:33.649Z,12.65
2018-04-17T02:06:33.747Z,12.65
2018-04-17T02:07:33.658Z,12.63
2018-04-17T02:08:33.598Z,12.65
2018-04-17T02:09:33.599Z,12.63
2018-04-17T02:10:33.640Z,12.6
2018-04-17T02:11:33.580Z,12.59
2018-04-17T02:12:33.693Z,12.56
2018-04-17T02:13:33.629Z,12.55
2018-04-17T02:14:33.583Z,12.53
2018-04-17T02:15:33.731Z,12.53
2018-04-17T02:16:33.583Z,12.49
2018-04-17T02:17:33.571Z,12.48
2018-04-17T02:18:33.610Z,12.45
2018-04-17T02:19:33.607Z,12.45
2018-04-17T02:20:33.741Z,12.44
2018-04-17T02:21:33.681Z,12.42
2018-04-17T02:22:33.563Z,12.42
2018-04-17T02:23:33.558Z,12.42
2018-04-17T02:24:33.594Z,12.41
2018-04-17T02:25:33.599Z,12.39
2018-04-17T02:26:33.551Z,12.44
2018-04-17T02:27:33.635Z,12.41
2018-04-17T02:28:33.565Z,12.41
2018-04-17T02:29:33.551Z,12.39
2018-04-17T02:30:33.600Z,12.38
2018-04-17T02:31:33.593Z,12.38
2018-04-17T02:32:33.563Z,12.37
2018-04-17T02:33:33.551Z,12.38
2018-04-17T02:34:33.557Z,12.39
2018-04-17T02:35:33.562Z,12.37
2018-04-17T02:36:33.543Z,12.37
2018-04-17T02:37:33.539Z,12.39
2018-04-17T02:38:33.566Z,12.38
2018-04-17T02:39:33.568Z,12.38
2018-04-17T02:40:33.583Z,12.38
2018-04-17T02:41:33.539Z,12.41
2018-04-17T02:42:33.529Z,12.41
2018-04-17T02:43:33.546Z,12.41
2018-04-17T02:44:33.547Z,12.42
2018-04-17T02:45:33.570Z,12.39
2018-04-17T02:46:33.536Z,12.38
2018-04-17T02:47:33.753Z,12.38
2018-04-17T02:48:33.537Z,12.35
2018-04-17T02:49:33.530Z,12.37
2018-04-17T02:50:33.516Z,12.37
2018-04-17T02:51:33.538Z,12.32
2018-04-17T02:52:33.529Z,12.32
2018-04-17T02:53:33.587Z,12.32
2018-04-17T02:54:33.535Z,12.27
2018-04-17T02:55:33.529Z,12.24
2018-04-17T02:56:33.547Z,12.23
2018-04-17T02:57:33.510Z,12.23
2018-04-17T02:58:33.518Z,12.2
2018-04-17T02:59:33.605Z,12.18
2018-04-17T03:00:33.538Z,12.17
2018-04-17T03:01:33.511Z,12.13
2018-04-17T03:02:33.521Z,12.13
2018-04-17T03:03:33.520Z,12.14
2018-04-17T03:04:33.498Z,12.1
2018-04-17T03:05:33.558Z,12.08
2018-04-17T03:06:33.514Z,12.08
2018-04-17T03:07:33.623Z,12.08
2018-04-17T03:08:33.504Z,12.08
2018-04-17T03:09:33.665Z,12.05
2018-04-17T03:10:33.494Z,12.05
2018-04-17T03:11:33.480Z,12.04
2018-04-17T03:12:33.493Z,12.04
2018-04-17T03:13:33.541Z,12.05
2018-04-17T03:14:33.484Z,12.04
2018-04-17T03:15:33.488Z,12.05
2018-04-17T03:16:33.477Z,12.01
2018-04-17T03:17:33.476Z,12.01
2018-04-17T03:18:33.481Z,12.03
2018-04-17T03:19:33.528Z,12.03
2018-04-17T03:20:33.493Z,12.05
2018-04-17T03:21:33.640Z,12.04
2018-04-17T03:22:33.485Z,12.04
2018-04-17T03:23:33.489Z,12.01
2018-04-17T03:24:33.506Z,12.03
2018-04-17T03:25:33.507Z,12.01
2018-04-17T03:26:33.470Z,11.98
2018-04-17T03:27:33.490Z,11.97
2018-04-17T03:28:33.479Z,11.94
2018-04-17T03:29:33.468Z,11.96
2018-04-17T03:30:33.471Z,11.94
2018-04-17T03:31:33.472Z,11.94
2018-04-17T03:32:33.509Z,11.92
2018-04-17T03:33:33.491Z,11.92
2018-04-17T03:34:33.460Z,11.92
2018-04-17T03:35:33.473Z,11.89
2018-04-17T03:36:33.478Z,11.89
2018-04-17T03:37:33.472Z,11.86
2018-04-17T03:38:33.466Z,11.83
2018-04-17T03:39:33.703Z,11.84
2018-04-17T03:40:33.470Z,11.86
2018-04-17T03:41:33.518Z,11.83
2018-04-17T03:42:33.466Z,11.84
2018-04-17T03:43:33.462Z,11.84
2018-04-17T03:44:33.466Z,11.83
2018-04-17T03:45:33.679Z,11.86
2018-04-17T03:46:33.477Z,11.84
2018-04-17T03:47:33.456Z,11.8
2018-04-17T03:48:33.448Z,11.76
2018-04-17T03:49:33.466Z,11.76
2018-04-17T03:50:33.482Z,11.73
2018-04-17T03:51:33.448Z,11.7
2018-04-17T03:52:33.445Z,11.66
2018-04-17T03:53:33.457Z,11.66
2018-04-17T03:54:33.434Z,11.66
2018-04-17T03:55:33.698Z,11.68
2018-04-17T03:56:33.466Z,11.65
2018-04-17T03:57:33.435Z,11.66
2018-04-17T03:58:33.447Z,11.68
2018-04-17T03:59:33.431Z,11.68
2018-04-17T04:00:33.460Z,11.68
2018-04-17T04:01:33.447Z,11.66
2018-04-17T04:02:33.468Z,11.65
2018-04-17T04:03:33.434Z,11.68
2018-04-17T04:04:33.421Z,11.65
2018-04-17T04:05:33.711Z,11.66
2018-04-17T04:06:33.440Z,11.65
2018-04-17T04:07:33.403Z,11.69
2018-04-17T04:08:33.395Z,11.69
2018-04-17T04:09:33.421Z,11.72
2018-04-17T04:10:33.579Z,11.69
2018-04-17T04:11:33.411Z,11.66
2018-04-17T04:12:33.419Z,11.69
2018-04-17T04:13:33.421Z,11.68
2018-04-17T04:14:33.499Z,11.66
2018-04-17T04:15:33.710Z,11.66
2018-04-17T04:16:33.396Z,11.66
2018-04-17T04:17:33.425Z,11.61
2018-04-17T04:18:33.414Z,11.61
2018-04-17T04:19:33.394Z,11.59
2018-04-17T04:20:33.425Z,11.58
2018-04-17T04:21:33.433Z,11.55
2018-04-17T04:22:33.411Z,11.54
2018-04-17T04:23:33.416Z,11.51
2018-04-17T04:24:33.407Z,11.52
2018-04-17T04:25:33.410Z,11.49
2018-04-17T04:26:33.424Z,11.47
2018-04-17T04:27:33.550Z,11.44
2018-04-17T04:28:33.426Z,11.39
2018-04-17T04:29:33.415Z,11.42
2018-04-17T04:30:33.442Z,11.41
2018-04-17T04:31:33.387Z,11.41
2018-04-17T04:32:33.433Z,11.39
2018-04-17T04:33:33.394Z,11.39
2018-04-17T04:34:33.438Z,11.38
2018-04-17T04:35:33.475Z,11.39
2018-04-17T04:36:33.409Z,11.38
2018-04-17T04:37:33.378Z,11.35
2018-04-17T04:38:33.375Z,11.37
2018-04-17T04:39:33.517Z,11.37
2018-04-17T04:40:33.401Z,11.38
2018-04-17T04:41:33.356Z,11.39
2018-04-17T04:42:33.427Z,11.39
2018-04-17T04:43:33.371Z,11.39
2018-04-17T04:44:33.367Z,11.42
2018-04-17T04:45:33.421Z,11.47
2018-04-17T04:46:33.373Z,11.44
2018-04-17T04:47:33.379Z,11.42
2018-04-17T04:48:33.348Z,11.44
2018-04-17T04:49:33.356Z,11.47
2018-04-17T04:50:33.353Z,11.47
2018-04-17T04:51:33.358Z,11.45
2018-04-17T04:52:33.356Z,11.45
2018-04-17T04:53:33.381Z,11.45
2018-04-17T04:54:33.340Z,11.42
2018-04-17T04:55:33.370Z,11.41
2018-04-17T04:56:33.355Z,11.47
2018-04-17T04:57:33.361Z,11.45
2018-04-17T04:58:33.350Z,11.45
2018-04-17T04:59:33.343Z,11.45
2018-04-17T05:00:33.400Z,11.49
2018-04-17T05:01:33.341Z,11.51
2018-04-17T05:02:33.333Z,11.52
2018-04-17T05:03:33.346Z,11.51
2018-04-17T05:04:33.339Z,11.51
2018-04-17T05:05:33.329Z,11.48
2018-04-17T05:06:33.439Z,11.49
2018-04-17T05:07:33.337Z,11.49
2018-04-17T05:08:33.332Z,11.49
2018-04-17T05:09:33.332Z,11.51
2018-04-17T05:10:33.316Z,11.52
2018-04-17T05:11:33.310Z,11.54
2018-04-17T05:12:33.342Z,11.55
2018-04-17T05:13:33.360Z,11.54
2018-04-17T05:14:33.345Z,11.55
2018-04-17T05:15:33.318Z,11.54
2018-04-17T05:16:33.358Z,11.54
2018-04-17T05:17:33.346Z,11.56
2018-04-17T05:18:33.445Z,11.55
2018-04-17T05:19:33.331Z,11.58
2018-04-17T05:20:33.386Z,11.58
2018-04-17T05:21:33.444Z,11.62
2018-04-17T05:22:33.338Z,11.58
2018-04-17T05:23:33.342Z,11.61
2018-04-17T05:24:33.416Z,11.62
2018-04-17T05:25:33.297Z,11.65
2018-04-17T05:26:33.358Z,11.68
2018-04-17T05:27:33.305Z,11.69
2018-04-17T05:28:33.304Z,11.7
2018-04-17T05:29:33.334Z,11.7
2018-04-17T05:30:33.296Z,11.7
2018-04-17T05:31:33.312Z,11.72
2018-04-17T05:32:33.295Z,11.73
2018-04-17T05:33:33.457Z,11.72
2018-04-17T05:34:33.288Z,11.76
2018-04-17T05:35:33.319Z,11.77
2018-04-17T05:36:33.463Z,11.79
2018-04-17T05:37:33.318Z,11.79
2018-04-17T05:38:33.278Z,11.8
2018-04-17T05:39:33.295Z,11.83
2018-04-17T05:40:33.296Z,11.82
2018-04-17T05:41:33.282Z,11.83
2018-04-17T05:42:33.302Z,11.84
2018-04-17T05:43:33.280Z,11.89
2018-04-17T05:44:33.321Z,11.89
2018-04-17T05:45:33.316Z,11.9
2018-04-17T05:46:33.289Z,11.92
2018-04-17T05:47:33.299Z,11.92
2018-04-17T05:48:33.302Z,11.9
2018-04-17T05:49:33.259Z,11.92
2018-04-17T05:50:33.271Z,11.94
2018-04-17T05:51:33.296Z,11.93
2018-04-17T05:52:33.311Z,11.94
2018-04-17T05:53:33.271Z,11.97
2018-04-17T05:54:33.380Z,11.98
2018-04-17T05:55:33.257Z,12.01
2018-04-17T05:56:33.295Z,12.01
2018-04-17T05:57:33.278Z,12
2018-04-17T05:58:33.381Z,12.01
2018-04-17T05:59:33.271Z,12.03
2018-04-17T06:00:33.267Z,12.03
2018-04-17T06:01:33.246Z,12.05
2018-04-17T06:02:33.278Z,12.05
2018-04-17T06:03:33.282Z,12.07
2018-04-17T06:04:33.373Z,12.08
2018-04-17T06:05:33.247Z,12.1
2018-04-17T06:06:33.373Z,12.08
2018-04-17T06:07:33.280Z,12.13
2018-04-17T06:08:33.233Z,12.16
2018-04-17T06:09:33.228Z,12.16
2018-04-17T06:10:33.247Z,12.2
2018-04-17T06:11:33.263Z,12.21
2018-04-17T06:12:33.259Z,12.24
2018-04-17T06:13:33.235Z,12.24
2018-04-17T06:14:33.229Z,12.27
2018-04-17T06:15:33.209Z,12.29
2018-04-17T06:16:33.253Z,12.29
2018-04-17T06:17:33.244Z,12.28
2018-04-17T06:18:33.250Z,12.24
2018-04-17T06:19:33.255Z,12.29
2018-04-17T06:20:33.311Z,12.34
2018-04-17T06:21:33.229Z,12.37
2018-04-17T06:22:33.297Z,12.37
2018-04-17T06:23:33.314Z,12.41
2018-04-17T06:24:33.227Z,12.39
2018-04-17T06:25:33.247Z,12.38
2018-04-17T06:26:33.267Z,12.42
2018-04-17T06:27:33.215Z,12.44
2018-04-17T06:28:33.276Z,12.44
2018-04-17T06:29:33.241Z,12.48
2018-04-17T06:30:33.220Z,12.51
2018-04-17T06:31:33.206Z,12.55
2018-04-17T06:32:33.220Z,12.55
2018-04-17T06:33:33.240Z,12.57
2018-04-17T06:34:33.305Z,12.59
2018-04-17T06:35:33.213Z,12.62
2018-04-17T06:36:33.206Z,12.65
2018-04-17T06:37:33.229Z,12.67
2018-04-17T06:38:33.232Z,12.67
2018-04-17T06:39:33.184Z,12.69
2018-04-17T06:40:33.217Z,12.69
2018-04-17T06:41:33.203Z,12.69
2018-04-17T06:42:33.247Z,12.69
2018-04-17T06:43:33.201Z,12.65
2018-04-17T06:44:33.299Z,12.69
2018-04-17T06:45:33.185Z,12.72
2018-04-17T06:46:33.184Z,12.77
2018-04-17T06:47:33.629Z,12.72
2018-04-17T06:48:33.197Z,12.79
2018-04-17T06:49:33.213Z,12.82
2018-04-17T06:50:33.203Z,12.84
2018-04-17T06:51:33.177Z,12.9
2018-04-17T06:52:33.259Z,12.91
2018-04-17T06:53:33.237Z,12.91
2018-04-17T06:54:33.944Z,12.96
2018-04-17T06:55:33.197Z,12.99
2018-04-17T06:56:33.201Z,13
2018-04-17T06:57:33.211Z,13.06
2018-04-17T06:58:33.198Z,13.1
2018-04-17T06:59:33.182Z,13.13
2018-04-17T07:00:33.145Z,13.18
2018-04-17T07:01:33.145Z,13.18
2018-04-17T07:02:33.141Z,13.25
2018-04-17T07:03:33.305Z,13.28
2018-04-17T07:04:33.154Z,13.32
2018-04-17T07:05:33.223Z,13.35
2018-04-17T07:06:33.162Z,13.35
2018-04-17T07:07:33.136Z,13.36
2018-04-17T07:08:33.156Z,13.41
2018-04-17T07:09:33.152Z,13.43
2018-04-17T07:10:33.129Z,13.43
2018-04-17T07:11:33.165Z,13.46
2018-04-17T07:12:33.152Z,13.47
2018-04-17T07:13:33.162Z,13.5
2018-04-17T07:14:33.235Z,13.53
2018-04-17T07:15:33.142Z,13.55
2018-04-17T07:16:33.141Z,13.59
2018-04-17T07:17:33.189Z,13.62
2018-04-17T07:18:33.194Z,13.64
2018-04-17T07:19:33.171Z,13.7
2018-04-17T07:20:33.139Z,13.73
2018-04-17T07:21:33.130Z,13.74
2018-04-17T07:22:33.137Z,13.79
2018-04-17T07:23:33.167Z,13.82
2018-04-17T07:24:33.122Z,13.84
2018-04-17T07:25:33.135Z,13.87
2018-04-17T07:26:33.128Z,13.91
2018-04-17T07:27:33.121Z,13.91
2018-04-17T07:28:33.147Z,14
2018-04-17T07:29:33.116Z,14.01
2018-04-17T07:30:33.135Z,14.05
2018-04-17T07:31:33.090Z,14.07
2018-04-17T07:32:33.122Z,14.1
2018-04-17T07:33:33.127Z,14.12
2018-04-17T07:34:33.115Z,14.14
2018-04-17T07:35:33.137Z,14.18
2018-04-17T07:36:33.092Z,14.21
2018-04-17T07:37:33.101Z,14.25
2018-04-17T07:38:33.150Z,14.29
2018-04-17T07:39:33.094Z,14.33
2018-04-17T07:40:33.493Z,14.33
2018-04-17T07:41:33.110Z,14.33
2018-04-17T07:42:33.092Z,14.38
2018-04-17T07:43:33.156Z,14.39
2018-04-17T07:44:33.091Z,14.39
2018-04-17T07:45:33.073Z,14.42
2018-04-17T07:46:33.095Z,14.42
2018-04-17T07:47:33.110Z,14.46
2018-04-17T07:48:33.089Z,14.51
2018-04-17T07:49:33.061Z,14.51
2018-04-17T07:50:33.063Z,14.58
2018-04-17T07:51:33.065Z,14.59
2018-04-17T07:52:33.097Z,14.6
2018-04-17T07:53:33.118Z,14.67
2018-04-17T07:54:33.246Z,14.72
2018-04-17T07:55:33.140Z,14.74
2018-04-17T07:56:33.090Z,14.79
2018-04-17T07:57:33.092Z,14.84
2018-04-17T07:58:33.080Z,14.9
2018-04-17T07:59:33.101Z,14.94
2018-04-17T08:00:33.077Z,14.9
2018-04-17T08:01:33.106Z,14.92
2018-04-17T08:02:33.076Z,14.91
2018-04-17T08:03:33.034Z,14.9
2018-04-17T08:04:33.100Z,14.91
2018-04-17T08:05:33.045Z,14.95
2018-04-17T08:06:33.080Z,15
2018-04-17T08:07:33.061Z,15.05
2018-04-17T08:08:33.057Z,15.11
2018-04-17T08:09:33.209Z,15.15
2018-04-17T08:10:33.060Z,15.18
2018-04-17T08:11:33.048Z,15.22
2018-04-17T08:12:33.052Z,15.25
2018-04-17T08:13:33.075Z,15.29
2018-04-17T08:14:33.062Z,15.35
2018-04-17T08:15:33.116Z,15.39
2018-04-17T08:16:33.104Z,15.46
2018-04-17T08:17:33.116Z,15.5
2018-04-17T08:18:33.075Z,15.5
2018-04-17T08:19:33.131Z,15.54
2018-04-17T08:20:33.088Z,15.63
2018-04-17T08:21:33.046Z,15.67
2018-04-17T08:22:33.020Z,15.7
2018-04-17T08:23:33.475Z,15.74
2018-04-17T08:24:33.084Z,15.8
2018-04-17T08:25:33.023Z,15.84
2018-04-17T08:26:33.053Z,15.9
2018-04-17T08:27:33.027Z,15.84
2018-04-17T08:28:33.275Z,15.88
2018-04-17T08:29:33.035Z,15.94
2018-04-17T08:30:33.009Z,15.94
2018-04-17T08:31:33.027Z,15.98
2018-04-17T08:32:33.020Z,16.01
2018-04-17T08:33:33.061Z,16.07
2018-04-17T08:34:34.295Z,16.09
2018-04-17T08:35:33.016Z,16.18
2018-04-17T08:36:33.006Z,16.16
2018-04-17T08:37:33.145Z,16.21
2018-04-17T08:38:33.076Z,16.25
2018-04-17T08:39:33.008Z,16.26
2018-04-17T08:40:33.022Z,16.29
2018-04-17T08:41:33.022Z,16.37
2018-04-17T08:42:33.019Z,16.42
2018-04-17T08:43:33.025Z,16.39
2018-04-17T08:44:33.014Z,16.37
2018-04-17T08:45:33.008Z,16.43
2018-04-17T08:46:33.046Z,16.49
2018-04-17T08:47:32.989Z,16.5
2018-04-17T08:48:32.987Z,16.46
2018-04-17T08:49:32.999Z,16.45
2018-04-17T08:50:32.972Z,16.49
2018-04-17T08:51:32.999Z,16.56
2018-04-17T08:52:33.163Z,16.52
2018-04-17T08:53:32.979Z,16.6
2018-04-17T08:54:33.225Z,16.62
2018-04-17T08:55:32.984Z,16.7
2018-04-17T08:56:33.011Z,16.73
2018-04-17T08:57:32.980Z,16.8
2018-04-17T08:58:32.995Z,16.83
2018-04-17T08:59:33.137Z,16.84
2018-04-17T09:00:33.001Z,16.9
2018-04-17T09:01:32.972Z,16.97
2018-04-17T09:02:33.095Z,16.98
2018-04-17T09:03:33.051Z,17.02
2018-04-17T09:04:33.246Z,17.07
2018-04-17T09:05:32.954Z,17.08
2018-04-17T09:06:32.993Z,17.12
2018-04-17T09:07:32.948Z,17.16
2018-04-17T09:08:32.981Z,17.18
2018-04-17T09:09:32.968Z,17.25
2018-04-17T09:10:33.055Z,17.29
2018-04-17T09:11:32.952Z,17.3
2018-04-17T09:12:32.993Z,17.35
2018-04-17T09:13:32.998Z,17.37
2018-04-17T09:14:32.978Z,17.4
2018-04-17T09:15:32.948Z,17.43
2018-04-17T09:16:32.952Z,17.49
2018-04-17T09:17:32.945Z,17.52
2018-04-17T09:18:32.987Z,17.53
2018-04-17T09:19:32.970Z,17.58
2018-04-17T09:20:32.963Z,17.63
2018-04-17T09:21:32.929Z,17.66
2018-04-17T09:22:32.997Z,17.69
2018-04-17T09:23:33.101Z,17.69
2018-04-17T09:24:32.957Z,17.64
2018-04-17T09:25:32.954Z,17.67
2018-04-17T09:26:32.955Z,17.67
2018-04-17T09:27:33.059Z,17.53
2018-04-17T09:28:32.973Z,17.43
2018-04-17T09:29:32.935Z,17.46
2018-04-17T09:30:32.940Z,17.49
2018-04-17T09:31:33.044Z,17.54
2018-04-17T09:32:32.935Z,17.61
2018-04-17T09:33:32.977Z,17.69
2018-04-17T09:34:33.239Z,17.67
2018-04-17T09:35:32.940Z,17.64
2018-04-17T09:36:32.912Z,17.7
2018-04-17T09:37:32.988Z,17.73
2018-04-17T09:38:32.951Z,17.73
2018-04-17T09:39:32.936Z,17.78
2018-04-17T09:40:32.943Z,17.8
2018-04-17T09:41:32.963Z,17.81
2018-04-17T09:42:33.028Z,17.82
2018-04-17T09:43:33.015Z,17.85
2018-04-17T09:44:32.995Z,17.91
2018-04-17T09:45:32.932Z,17.91
2018-04-17T09:46:32.997Z,17.91
2018-04-17T09:47:32.894Z,17.95
2018-04-17T09:48:32.911Z,17.95
2018-04-17T09:49:32.915Z,17.95
2018-04-17T09:50:32.962Z,17.97
2018-04-17T09:51:32.897Z,17.91
2018-04-17T09:52:32.885Z,17.94
2018-04-17T09:53:32.935Z,17.94
2018-04-17T09:54:32.977Z,17.95
2018-04-17T09:55:32.911Z,18.04
2018-04-17T09:56:32.953Z,18.01
2018-04-17T09:57:33.111Z,18.08
2018-04-17T09:58:32.950Z,18.15
2018-04-17T09:59:32.885Z,18.16
2018-04-17T10:00:32.908Z,18.22
2018-04-17T10:01:32.895Z,18.27
2018-04-17T10:02:32.878Z,18.29
2018-04-17T10:03:32.925Z,18.27
2018-04-17T10:04:32.890Z,18.36
2018-04-17T10:05:32.889Z,18.43
2018-04-17T10:06:32.896Z,18.39
2018-04-17T10:07:32.944Z,18.43
2018-04-17T10:08:32.931Z,18.44
2018-04-17T10:09:32.878Z,18.5
2018-04-17T10:10:32.898Z,18.53
2018-04-17T10:11:32.864Z,18.6
2018-04-17T10:12:32.860Z,18.66
2018-04-17T10:13:32.867Z,18.71
2018-04-17T10:14:32.907Z,18.8
2018-04-17T10:15:32.915Z,18.85
2018-04-17T10:16:33.022Z,18.92
2018-04-17T10:17:32.876Z,18.99
2018-04-17T10:18:32.863Z,19.03
2018-04-17T10:19:32.919Z,19.03
2018-04-17T10:20:32.899Z,19.01
2018-04-17T10:21:32.997Z,19.15
2018-04-17T10:22:33.085Z,19.23
2018-04-17T10:23:32.845Z,19.36
2018-04-17T10:24:32.887Z,19.44
2018-04-17T10:25:32.858Z,19.49
2018-04-17T10:26:32.865Z,19.51
2018-04-17T10:27:32.890Z,19.6
2018-04-17T10:28:32.838Z,19.64
2018-04-17T10:29:32.835Z,19.7
2018-04-17T10:30:32.851Z,19.81
2018-04-17T10:31:32.874Z,19.88
2018-04-17T10:32:32.860Z,19.93
2018-04-17T10:33:32.877Z,19.95
2018-04-17T10:34:32.878Z,19.98
2018-04-17T10:35:32.848Z,19.96
2018-04-17T10:36:32.863Z,19.96
2018-04-17T10:37:32.835Z,19.98
2018-04-17T10:38:32.868Z,19.98
2018-04-17T10:39:32.896Z,20.01
2018-04-17T10:40:32.843Z,20.08
2018-04-17T10:41:32.858Z,20.12
2018-04-17T10:42:32.825Z,20.11
2018-04-17T10:43:32.900Z,20.16
2018-04-17T10:44:32.840Z,20.19
2018-04-17T10:45:32.864Z,20.2
2018-04-17T10:46:33.068Z,20.29
2018-04-17T10:47:32.859Z,20.32
2018-04-17T10:48:32.851Z,20.34
2018-04-17T10:49:32.890Z,20.36
2018-04-17T10:50:32.838Z,20.37
2018-04-17T10:51:32.854Z,20.41
2018-04-17T10:52:32.836Z,20.48
2018-04-17T10:53:32.841Z,20.5
2018-04-17T10:54:32.826Z,20.54
2018-04-17T10:55:32.850Z,20.52
2018-04-17T10:56:32.899Z,20.52
2018-04-17T10:57:32.834Z,20.55
2018-04-17T10:58:32.792Z,20.61
2018-04-17T10:59:32.829Z,20.64
2018-04-17T11:00:32.852Z,20.72
2018-04-17T11:01:32.869Z,20.75
2018-04-17T11:02:32.809Z,20.74
2018-04-17T11:03:32.820Z,20.51
2018-04-17T11:04:32.787Z,20.46
2018-04-17T11:05:32.817Z,20.44
2018-04-17T11:06:33.027Z,20.43
2018-04-17T11:07:32.856Z,20.34
2018-04-17T11:08:32.814Z,20.41
2018-04-17T11:09:32.791Z,20.51
2018-04-17T11:10:32.799Z,20.48
2018-04-17T11:11:32.847Z,20.48
2018-04-17T11:12:32.948Z,20.55
2018-04-17T11:13:32.809Z,20.62
2018-04-17T11:14:32.817Z,20.71
2018-04-17T11:15:32.760Z,20.81
2018-04-17T11:16:32.860Z,20.78
2018-04-17T11:17:32.787Z,20.82
2018-04-17T11:18:32.922Z,20.85
2018-04-17T11:19:32.791Z,20.92
2018-04-17T11:20:32.823Z,20.96
2018-04-17T11:21:33.086Z,21.02
2018-04-17T11:22:32.760Z,20.98
2018-04-17T11:23:32.766Z,20.88
2018-04-17T11:24:32.775Z,20.92
2018-04-17T11:25:32.819Z,20.98
2018-04-17T11:26:32.779Z,21.07
2018-04-17T11:27:32.762Z,20.98
2018-04-17T11:28:32.843Z,20.96
2018-04-17T11:29:32.763Z,21.03
2018-04-17T11:30:32.800Z,21.09
2018-04-17T11:31:32.814Z,21.15
2018-04-17T11:32:32.795Z,21.19
2018-04-17T11:33:32.786Z,21.22
2018-04-17T11:34:32.932Z,21.23
2018-04-17T11:35:32.848Z,21.24
2018-04-17T11:36:32.773Z,21.29
2018-04-17T11:37:32.762Z,21.3
2018-04-17T11:38:32.808Z,21.32
2018-04-17T11:39:32.830Z,21.29
2018-04-17T11:40:32.748Z,21.3
2018-04-17T11:41:32.784Z,21.36
2018-04-17T11:42:32.786Z,21.39
2018-04-17T11:43:32.801Z,21.47
2018-04-17T11:44:32.767Z,21.49
2018-04-17T11:45:32.739Z,21.51
2018-04-17T11:46:32.797Z,21.56
2018-04-17T11:47:32.758Z,21.57
2018-04-17T11:48:32.893Z,21.58
2018-04-17T11:49:32.770Z,21.61
2018-04-17T11:50:32.807Z,21.61
2018-04-17T11:51:32.750Z,21.68
2018-04-17T11:52:32.742Z,21.65
2018-04-17T11:53:32.819Z,21.72
2018-04-17T11:54:32.752Z,21.69
2018-04-17T11:55:32.726Z,21.68
2018-04-17T11:56:32.916Z,21.65
2018-04-17T11:57:32.846Z,21.67
2018-04-17T11:58:32.760Z,21.74
2018-04-17T11:59:32.737Z,21.75
2018-04-17T12:00:32.743Z,21.81
2018-04-17T12:01:32.780Z,21.86
2018-04-17T12:02:32.713Z,21.94
2018-04-17T12:03:32.730Z,21.98
2018-04-17T12:04:32.778Z,21.95
2018-04-17T12:05:32.770Z,21.98
2018-04-17T12:06:32.722Z,22.02
2018-04-17T12:07:32.726Z,22.06
2018-04-17T12:08:32.720Z,21.96
2018-04-17T12:09:32.723Z,21.94
2018-04-17T12:10:32.718Z,22.01
2018-04-17T12:11:32.739Z,22.03
2018-04-17T12:12:32.760Z,22.13
2018-04-17T12:13:32.709Z,22.16
2018-04-17T12:14:32.699Z,22.02
2018-04-17T12:15:32.727Z,21.99
2018-04-17T12:16:32.720Z,22.02
2018-04-17T12:17:32.751Z,22.11
2018-04-17T12:18:32.730Z,22.15
2018-04-17T12:19:32.724Z,22.22
2018-04-17T12:20:32.709Z,22.29
2018-04-17T12:21:32.711Z,22.34
2018-04-17T12:22:32.703Z,22.37
2018-04-17T12:23:32.759Z,22.4
2018-04-17T12:24:32.698Z,22.44
2018-04-17T12:25:32.691Z,22.43
2018-04-17T12:26:32.722Z,22.46
2018-04-17T12:27:32.820Z,22.5
2018-04-17T12:28:32.714Z,22.26
2018-04-17T12:29:32.669Z,22.13
2018-04-17T12:30:32.700Z,22.19
2018-04-17T12:31:32.706Z,22.31
2018-04-17T12:32:32.851Z,22.36
2018-04-17T12:33:32.660Z,22.43
2018-04-17T12:34:32.890Z,22.51
2018-04-17T12:35:32.682Z,22.56
2018-04-17T12:36:32.664Z,22.61
2018-04-17T12:37:32.680Z,22.67
2018-04-17T12:38:32.684Z,22.68
2018-04-17T12:39:32.653Z,22.74
2018-04-17T12:40:32.724Z,22.74
2018-04-17T12:41:32.689Z,22.81
2018-04-17T12:42:32.696Z,22.86
2018-04-17T12:43:32.683Z,22.91
2018-04-17T12:44:32.796Z,22.94
2018-04-17T12:45:32.663Z,22.95
2018-04-17T12:46:32.657Z,22.92
2018-04-17T12:47:32.707Z,23.01
2018-04-17T12:48:32.677Z,22.99
2018-04-17T12:49:32.654Z,22.96
2018-04-17T12:50:32.647Z,22.99
2018-04-17T12:51:32.698Z,23.03
2018-04-17T12:52:32.689Z,22.98
2018-04-17T12:53:32.641Z,23.03
2018-04-17T12:54:32.652Z,23.05
2018-04-17T12:55:32.659Z,23.09